Time;durP1;ratioP1;P1;durP2;ratioP2;P2;SDS_P1;SDS_P2;PMS_P1;PMS_P2;Temp;Humidity;BMP_temperature;BMP_pressure;BME280_temperature;BME280_humidity;BME280_pressure;Samples;Min_cycle;Max_cycle;Signal;HPM_P1;HPM_P2
2022/12/11 00:02:23;;;;;;;24.67;9.50;;;0.00;99.90;;;;;;5096147;28;20031;-88
2022/12/11 00:04:49;;;;;;;25.85;10.25;;;0.00;99.90;;;;;;5110577;28;20405;-88
2022/12/11 00:07:14;;;;;;;24.98;11.52;;;0.10;99.90;;;;;;5093191;28;20046;-88
2022/12/11 00:09:40;;;;;;;25.55;10.75;;;0.10;99.90;;;;;;5078791;28;20535;-88
2022/12/11 00:12:06;;;;;;;26.65;10.55;;;0.10;99.90;;;;;;5089429;28;20036;-89
2022/12/11 00:14:32;;;;;;;28.02;10.50;;;0.10;99.90;;;;;;5090438;28;20024;-88
2022/12/11 00:16:57;;;;;;;31.50;11.30;;;0.10;99.90;;;;;;5110269;28;20050;-89
2022/12/11 00:19:23;;;;;;;31.10;11.55;;;0.10;99.90;;;;;;5109925;28;20122;-89
2022/12/11 00:21:48;;;;;;;29.58;11.05;;;0.20;99.90;;;;;;5093466;28;20424;-89
2022/12/11 00:24:14;;;;;;;28.63;10.23;;;0.20;99.90;;;;;;5093349;28;20046;-88
2022/12/11 00:26:40;;;;;;;31.65;11.13;;;0.20;99.90;;;;;;5109329;28;20709;-88
2022/12/11 00:29:07;;;;;;;29.73;11.75;;;0.20;99.90;;;;;;5093226;28;20119;-89
2022/12/11 00:31:33;;;;;;;33.03;13.38;;;0.20;99.90;;;;;;5105105;28;20036;-89
2022/12/11 00:34:01;;;;;;;34.50;12.07;;;0.20;99.90;;;;;;5089693;28;20046;-89
2022/12/11 00:36:27;;;;;;;31.55;11.50;;;0.20;99.90;;;;;;5106948;28;20509;-88
2022/12/11 00:38:53;;;;;;;34.25;12.38;;;0.30;99.90;;;;;;5091266;28;20055;-88
2022/12/11 00:41:19;;;;;;;34.78;12.85;;;0.30;99.90;;;;;;5093494;28;20040;-88
2022/12/11 00:43:45;;;;;;;37.60;13.57;;;0.30;99.90;;;;;;5108789;28;20036;-89
2022/12/11 00:46:10;;;;;;;35.83;14.32;;;0.30;99.90;;;;;;5106577;28;20047;-89
2022/12/11 00:48:36;;;;;;;34.58;13.65;;;0.30;99.90;;;;;;5079255;28;20122;-88
2022/12/11 00:51:02;;;;;;;33.25;11.93;;;0.30;99.90;;;;;;5091246;28;20032;-88
2022/12/11 00:53:28;;;;;;;30.52;11.40;;;0.40;99.90;;;;;;5088694;28;20536;-88
2022/12/11 00:55:53;;;;;;;33.25;11.38;;;0.40;99.90;;;;;;5089735;28;20031;-88
2022/12/11 00:58:19;;;;;;;30.05;11.63;;;0.40;99.90;;;;;;5093287;28;20044;-88
2022/12/11 01:00:47;;;;;;;28.55;11.43;;;0.40;99.90;;;;;;5109568;28;20040;-88
2022/12/11 01:03:13;;;;;;;28.05;10.88;;;0.40;99.90;;;;;;5091733;28;20062;-89
2022/12/11 01:05:39;;;;;;;34.38;12.60;;;0.50;99.90;;;;;;5109898;28;20547;-89
2022/12/11 01:08:05;;;;;;;35.80;12.43;;;0.40;99.90;;;;;;5083296;28;20040;-88
2022/12/11 01:10:31;;;;;;;30.77;11.32;;;0.50;99.90;;;;;;5089376;28;20028;-88
2022/12/11 01:13:03;;;;;;;34.00;12.45;;;0.50;99.90;;;;;;5088951;28;20409;-88
2022/12/11 01:15:37;;;;;;;34.22;10.75;;;0.50;99.90;;;;;;5105903;28;20039;-88
2022/12/11 01:18:03;;;;;;;33.65;12.15;;;0.50;99.90;;;;;;5109587;28;20039;-88
2022/12/11 01:20:29;;;;;;;39.03;11.98;;;0.50;99.90;;;;;;5109187;28;20042;-89
2022/12/11 01:22:58;;;;;;;30.92;12.20;;;0.50;99.90;;;;;;5079210;28;20409;-89
2022/12/11 01:25:25;;;;;;;35.42;12.45;;;0.60;99.90;;;;;;5106232;28;20066;-88
2022/12/11 01:27:52;;;;;;;30.80;11.27;;;0.60;99.90;;;;;;5097383;28;20043;-89
2022/12/11 01:30:19;;;;;;;33.53;12.35;;;0.60;99.90;;;;;;5088777;28;20105;-89
2022/12/11 01:32:45;;;;;;;37.00;12.40;;;0.60;99.90;;;;;;5093037;28;20511;-89
2022/12/11 01:35:11;;;;;;;30.50;11.02;;;0.60;99.90;;;;;;5092784;28;20122;-88
2022/12/11 01:37:37;;;;;;;32.15;11.27;;;0.60;99.90;;;;;;5088599;28;20082;-88
2022/12/11 01:40:05;;;;;;;26.73;10.48;;;0.60;99.90;;;;;;5088623;28;20071;-88
2022/12/11 01:42:30;;;;;;;30.00;10.55;;;0.60;99.90;;;;;;5108428;28;20032;-88
2022/12/11 01:45:21;;;;;;;34.38;11.88;;;0.60;99.90;;;;;;5107639;28;20034;-88
2022/12/11 01:47:52;;;;;;;30.88;10.93;;;0.60;99.90;;;;;;5092127;28;20032;-88
2022/12/11 01:50:18;;;;;;;34.33;11.68;;;0.60;99.90;;;;;;5091275;28;20050;-88
2022/12/11 01:52:47;;;;;;;33.70;12.32;;;0.70;99.90;;;;;;5092834;28;20409;-88
2022/12/11 01:55:13;;;;;;;30.05;12.68;;;0.60;99.90;;;;;;5089225;28;20085;-88
2022/12/11 01:57:42;;;;;;;25.88;10.50;;;0.70;99.90;;;;;;5108783;28;20075;-88
2022/12/11 02:00:09;;;;;;;31.13;11.35;;;0.70;99.90;;;;;;5109939;28;20501;-88
2022/12/11 02:02:34;;;;;;;27.13;11.93;;;0.70;99.90;;;;;;5109310;28;20119;-88
2022/12/11 02:05:05;;;;;;;29.70;11.48;;;0.70;99.90;;;;;;5110013;28;20131;-88
2022/12/11 02:07:37;;;;;;;34.83;12.38;;;0.60;99.90;;;;;;5110326;28;20496;-88
2022/12/11 02:10:04;;;;;;;29.48;10.48;;;0.70;99.90;;;;;;5092962;28;20040;-88
2022/12/11 02:12:52;;;;;;;33.85;12.02;;;0.60;99.90;;;;;;5109586;28;20079;-89
2022/12/11 02:15:44;;;;;;;32.17;11.57;;;0.70;99.90;;;;;;5096550;28;20043;-89
2022/12/11 02:18:25;;;;;;;24.05;10.38;;;0.70;99.90;;;;;;5108606;28;20043;-89
2022/12/11 02:21:07;;;;;;;30.92;12.20;;;0.70;99.90;;;;;;5113576;28;20047;-88
2022/12/11 02:23:40;;;;;;;28.75;10.45;;;0.70;99.90;;;;;;5113466;28;20122;-89
2022/12/11 02:26:24;;;;;;;35.47;11.15;;;0.70;99.90;;;;;;5113577;28;20069;-89
2022/12/11 02:28:57;;;;;;;28.13;10.35;;;0.70;99.90;;;;;;5113659;28;20050;-89
2022/12/11 02:31:28;;;;;;;30.13;11.32;;;0.60;99.90;;;;;;5096430;28;20114;-89
2022/12/11 02:34:17;;;;;;;28.83;11.80;;;0.70;99.90;;;;;;5096248;28;20043;-89
2022/12/11 02:36:48;;;;;;;31.60;12.40;;;0.70;99.90;;;;;;5096492;28;20035;-89
2022/12/11 02:39:16;;;;;;;35.97;13.38;;;0.70;99.90;;;;;;5113663;28;20039;-89
2022/12/11 02:41:46;;;;;;;25.70;10.55;;;0.70;99.90;;;;;;5096529;28;20044;-89
2022/12/11 02:44:14;;;;;;;34.28;11.35;;;0.70;99.90;;;;;;5095980;28;20044;-89
2022/12/11 02:46:41;;;;;;;30.30;9.80;;;0.80;99.90;;;;;;5113243;28;20039;-89
2022/12/11 02:49:10;;;;;;;34.78;12.30;;;0.80;99.90;;;;;;5113299;28;20036;-89
2022/12/11 02:51:38;;;;;;;33.38;11.85;;;0.80;99.90;;;;;;5096167;28;20042;-89
2022/12/11 02:54:08;;;;;;;39.28;13.63;;;0.80;99.90;;;;;;5095558;28;20128;-89
2022/12/11 02:56:53;;;;;;;30.10;10.13;;;0.80;99.90;;;;;;5096319;28;20043;-89
2022/12/11 02:59:24;;;;;;;25.45;10.88;;;0.90;99.90;;;;;;5096013;28;20040;-89
2022/12/11 03:01:50;;;;;;;31.50;10.65;;;0.90;99.90;;;;;;5095311;28;20404;-89
2022/12/11 03:04:15;;;;;;;30.05;10.63;;;0.90;99.90;;;;;;5112401;28;20038;-89
2022/12/11 03:06:47;;;;;;;31.05;12.35;;;0.90;99.90;;;;;;5112867;28;20397;-89
2022/12/11 03:09:12;;;;;;;34.85;11.93;;;0.90;99.90;;;;;;5095845;28;20089;-89
2022/12/11 03:11:38;;;;;;;28.83;11.65;;;0.90;99.90;;;;;;5095816;28;20091;-89
2022/12/11 03:14:05;;;;;;;35.05;11.73;;;0.90;99.90;;;;;;5095545;28;20075;-89
2022/12/11 03:16:37;;;;;;;33.47;13.90;;;0.90;99.90;;;;;;5095516;28;20042;-89
2022/12/11 03:19:23;;;;;;;32.95;11.38;;;1.00;99.90;;;;;;5112582;28;20076;-89
2022/12/11 03:22:13;;;;;;;31.80;11.98;;;1.00;99.90;;;;;;5095805;28;20046;-89
2022/12/11 03:24:48;;;;;;;32.25;10.63;;;1.00;99.90;;;;;;5112707;28;20401;-89
2022/12/11 03:27:26;;;;;;;30.52;12.10;;;1.00;99.90;;;;;;5112174;28;20040;-89
2022/12/11 03:30:07;;;;;;;31.05;11.18;;;1.00;99.90;;;;;;5095583;28;20088;-89
2022/12/11 03:32:41;;;;;;;32.85;12.68;;;1.00;99.90;;;;;;5099460;28;20184;-89
2022/12/11 03:35:06;;;;;;;30.30;10.32;;;1.10;99.90;;;;;;5075174;28;20119;-88
2022/12/11 03:37:37;;;;;;;30.58;11.70;;;1.10;99.90;;;;;;5074704;28;20182;-89
2022/12/11 03:40:09;;;;;;;37.63;13.68;;;1.10;99.90;;;;;;5091894;28;20047;-89
2022/12/11 03:42:37;;;;;;;37.13;12.57;;;1.10;99.90;;;;;;5091550;28;20040;-89
2022/12/11 03:45:05;;;;;;;35.75;13.23;;;1.10;99.90;;;;;;5074899;28;20097;-89
2022/12/11 03:47:32;;;;;;;31.92;11.75;;;1.10;99.90;;;;;;5091857;28;20047;-89
2022/12/11 03:49:59;;;;;;;30.30;11.43;;;1.10;99.90;;;;;;5091374;28;20043;-89
2022/12/11 03:52:27;;;;;;;35.67;13.38;;;1.00;99.90;;;;;;5074430;28;20032;-89
2022/12/11 03:54:55;;;;;;;36.30;13.38;;;1.10;99.90;;;;;;5091091;28;20170;-89
2022/12/11 03:57:26;;;;;;;35.42;12.65;;;1.10;99.90;;;;;;5074699;28;20064;-89
2022/12/11 03:59:52;;;;;;;38.78;12.93;;;1.10;99.90;;;;;;5074674;28;20054;-89
2022/12/11 04:02:17;;;;;;;32.35;11.60;;;1.10;99.90;;;;;;5090382;28;20525;-89
2022/12/11 04:04:43;;;;;;;44.47;15.07;;;1.10;99.90;;;;;;5091146;28;20043;-89
2022/12/11 04:07:09;;;;;;;41.78;14.23;;;1.10;99.90;;;;;;5091420;28;20093;-90
2022/12/11 04:09:35;;;;;;;39.35;13.95;;;1.10;99.90;;;;;;5074637;28;20055;-90
2022/12/11 04:12:00;;;;;;;38.17;12.73;;;1.10;99.90;;;;;;5090911;28;20040;-89
2022/12/11 04:17:10;;;;;;;37.15;13.65;;;1.10;99.90;;;;;;5091164;28;20127;-89
2022/12/11 04:25:07;;;;;;;38.88;12.93;;;1.10;99.90;;;;;;5091216;28;20517;-89
2022/12/11 04:27:47;;;;;;;38.72;13.38;;;1.10;99.90;;;;;;5091065;28;20036;-89
2022/12/11 04:30:24;;;;;;;46.13;15.35;;;1.10;99.90;;;;;;5091757;28;20047;-90
2022/12/11 04:32:50;;;;;;;38.55;14.85;;;1.10;99.90;;;;;;5074317;28;20040;-90
2022/12/11 04:35:16;;;;;;;38.95;13.23;;;1.10;99.90;;;;;;5074477;28;20044;-89
2022/12/11 04:37:42;;;;;;;46.95;16.60;;;1.10;99.90;;;;;;5090081;28;20044;-89
2022/12/11 04:40:11;;;;;;;36.22;14.43;;;1.10;99.90;;;;;;5074201;28;20043;-89
2022/12/11 04:42:37;;;;;;;36.40;12.20;;;1.10;99.90;;;;;;5073765;28;20044;-90
2022/12/11 04:45:04;;;;;;;44.33;14.73;;;1.10;99.90;;;;;;5090839;28;20047;-89
2022/12/11 04:47:30;;;;;;;33.40;12.32;;;1.10;99.90;;;;;;5090964;28;20485;-90
2022/12/11 04:49:55;;;;;;;35.63;13.32;;;1.10;99.90;;;;;;5090972;28;20046;-89
2022/12/11 04:52:21;;;;;;;38.75;15.27;;;1.10;99.90;;;;;;5073956;28;20083;-89
2022/12/11 04:54:46;;;;;;;40.70;14.18;;;1.10;99.90;;;;;;5073896;28;20044;-89
2022/12/11 04:57:12;;;;;;;38.90;14.35;;;1.10;99.90;;;;;;5090863;28;20032;-89
2022/12/11 04:59:38;;;;;;;39.65;14.63;;;1.10;99.90;;;;;;5091129;28;20396;-89
2022/12/11 05:02:04;;;;;;;35.08;13.25;;;1.20;99.90;;;;;;5073105;28;20516;-89
2022/12/11 05:04:33;;;;;;;40.78;13.82;;;1.20;99.90;;;;;;5074263;28;20036;-89
2022/12/11 05:07:00;;;;;;;39.13;14.43;;;1.20;99.90;;;;;;5090604;28;20061;-90
2022/12/11 05:09:26;;;;;;;36.97;13.63;;;1.20;99.90;;;;;;5090917;28;20043;-89
2022/12/11 05:11:52;;;;;;;33.45;12.88;;;1.20;99.90;;;;;;5090483;28;20052;-90
2022/12/11 05:14:18;;;;;;;37.65;14.05;;;1.20;99.90;;;;;;5073608;28;20047;-90
2022/12/11 05:16:43;;;;;;;37.10;13.85;;;1.20;99.90;;;;;;5090478;28;20040;-89
2022/12/11 05:19:09;;;;;;;35.55;12.63;;;1.20;99.90;;;;;;5073653;28;20047;-89
2022/12/11 05:21:35;;;;;;;35.90;13.60;;;1.20;99.90;;;;;;5073731;28;20032;-89
2022/12/11 05:24:01;;;;;;;38.38;12.93;;;1.20;99.90;;;;;;5073578;28;20058;-90
2022/12/11 05:26:26;;;;;;;38.00;14.90;;;1.30;99.90;;;;;;5073525;28;20055;-89
2022/12/11 05:28:53;;;;;;;37.75;14.65;;;1.30;99.90;;;;;;5073552;28;20101;-89
2022/12/11 05:31:22;;;;;;;36.63;12.98;;;1.30;99.90;;;;;;5090407;28;20097;-90
2022/12/11 05:33:49;;;;;;;33.85;13.43;;;1.30;99.90;;;;;;5073266;28;20123;-90
2022/12/11 05:36:24;;;;;;;38.80;14.68;;;1.30;99.90;;;;;;5090314;28;20499;-90
2022/12/11 05:38:51;;;;;;;32.78;13.88;;;1.30;99.90;;;;;;5073421;28;20128;-89
2022/12/11 05:41:22;;;;;;;38.28;14.90;;;1.30;99.90;;;;;;5090471;28;20048;-90
2022/12/11 05:43:48;;;;;;;40.72;13.88;;;1.30;99.90;;;;;;5073367;28;20051;-89
2022/12/11 05:46:19;;;;;;;37.22;14.75;;;1.30;99.90;;;;;;5073625;28;20036;-89
2022/12/11 05:48:47;;;;;;;35.72;13.73;;;1.30;99.90;;;;;;5091222;28;20036;-89
2022/12/11 05:51:13;;;;;;;39.38;12.93;;;1.40;99.90;;;;;;5077450;28;20047;-89
2022/12/11 05:53:40;;;;;;;37.97;12.77;;;1.40;99.90;;;;;;5076997;28;20472;-90
2022/12/11 05:56:09;;;;;;;34.80;13.77;;;1.40;99.90;;;;;;5094123;28;20039;-89
2022/12/11 05:58:35;;;;;;;37.28;12.63;;;1.40;99.90;;;;;;5077435;28;20040;-89
2022/12/11 06:01:01;;;;;;;39.38;15.73;;;1.40;99.90;;;;;;5094322;28;20520;-90
2022/12/11 06:03:27;;;;;;;38.67;14.40;;;1.30;99.90;;;;;;5093773;28;20048;-90
2022/12/11 06:05:53;;;;;;;36.85;13.10;;;1.40;99.90;;;;;;5077024;28;20040;-89
2022/12/11 06:08:18;;;;;;;40.10;14.25;;;1.40;99.90;;;;;;5093952;28;20123;-89
2022/12/11 06:10:46;;;;;;;37.22;13.25;;;1.40;99.90;;;;;;5076834;28;20090;-90
2022/12/11 06:13:12;;;;;;;33.85;11.80;;;1.40;99.90;;;;;;5093595;28;20046;-90
2022/12/11 06:15:38;;;;;;;28.90;12.13;;;1.40;99.90;;;;;;5077209;28;20047;-89
2022/12/11 06:18:03;;;;;;;34.10;12.23;;;1.40;99.90;;;;;;5094006;28;20527;-90
2022/12/11 06:20:33;;;;;;;36.42;12.85;;;1.40;99.90;;;;;;5076798;28;20051;-89
2022/12/11 06:22:59;;;;;;;30.63;11.18;;;1.40;99.90;;;;;;5076138;28;20408;-89
2022/12/11 06:25:26;;;;;;;29.73;12.32;;;1.40;99.90;;;;;;5091262;28;20040;-89
2022/12/11 06:27:52;;;;;;;36.35;11.50;;;1.40;99.90;;;;;;5092347;28;20047;-89
2022/12/11 06:30:17;;;;;;;30.35;11.90;;;1.40;99.90;;;;;;5076041;28;20032;-89
2022/12/11 06:32:43;;;;;;;30.02;12.23;;;1.30;99.90;;;;;;5092369;28;20555;-90
2022/12/11 06:35:10;;;;;;;34.45;12.57;;;1.30;99.90;;;;;;5092566;28;20036;-90
2022/12/11 06:37:36;;;;;;;28.52;12.73;;;1.30;99.90;;;;;;5092844;28;20039;-90
2022/12/11 06:40:03;;;;;;;33.45;13.45;;;1.40;99.90;;;;;;5092687;28;20465;-89
2022/12/11 06:42:29;;;;;;;40.40;14.02;;;1.40;99.90;;;;;;5075469;28;20028;-89
2022/12/11 06:44:58;;;;;;;33.83;11.85;;;1.40;99.90;;;;;;5075620;28;20123;-89
2022/12/11 06:47:28;;;;;;;32.53;11.98;;;1.40;99.90;;;;;;5092627;28;20123;-89
2022/12/11 06:49:55;;;;;;;28.00;10.15;;;1.40;99.90;;;;;;5092449;28;20043;-89
2022/12/11 06:52:22;;;;;;;29.00;11.88;;;1.40;99.90;;;;;;5075493;28;20114;-89
2022/12/11 06:54:47;;;;;;;33.00;11.52;;;1.40;99.90;;;;;;5075995;28;20401;-89
2022/12/11 06:57:14;;;;;;;33.42;12.82;;;1.40;99.90;;;;;;5075753;28;20444;-89
2022/12/11 06:59:39;;;;;;;28.90;11.20;;;1.40;99.90;;;;;;5074818;28;20110;-89
2022/12/11 07:02:05;;;;;;;27.95;11.20;;;1.50;99.90;;;;;;5073214;28;20056;-89
2022/12/11 07:04:31;;;;;;;28.63;10.85;;;1.50;99.90;;;;;;5092367;28;20055;-89
2022/12/11 07:06:56;;;;;;;27.67;11.77;;;1.50;99.90;;;;;;5092239;28;20051;-89
2022/12/11 07:09:23;;;;;;;28.10;10.73;;;1.50;99.90;;;;;;5092273;28;20374;-89
2022/12/11 07:11:49;;;;;;;34.05;12.63;;;1.50;99.90;;;;;;5092438;28;20039;-89
2022/12/11 07:14:15;;;;;;;37.30;12.15;;;1.50;99.90;;;;;;5075184;28;20059;-90
2022/12/11 07:16:41;;;;;;;32.78;13.02;;;1.50;99.90;;;;;;5075207;28;20497;-90
2022/12/11 07:19:07;;;;;;;33.70;11.38;;;1.50;99.90;;;;;;5075029;28;20036;-89
2022/12/11 07:21:33;;;;;;;30.95;10.32;;;1.50;99.90;;;;;;5091465;28;20040;-90
2022/12/11 07:23:58;;;;;;;28.25;10.57;;;1.50;99.90;;;;;;5073948;28;20043;-90
2022/12/11 07:26:24;;;;;;;28.77;11.20;;;1.60;99.90;;;;;;5074623;28;20113;-90
2022/12/11 07:28:50;;;;;;;32.67;12.20;;;1.60;99.90;;;;;;5091835;28;20044;-90
2022/12/11 07:31:18;;;;;;;33.08;11.82;;;1.60;99.90;;;;;;5074613;28;20068;-90
2022/12/11 07:33:44;;;;;;;33.00;11.68;;;1.60;99.90;;;;;;5074762;28;20028;-90
2022/12/11 07:36:12;;;;;;;31.30;11.13;;;1.60;99.90;;;;;;5108632;28;20123;-90
2022/12/11 07:38:38;;;;;;;33.38;11.18;;;1.60;99.90;;;;;;5125897;27;20524;-90
2022/12/11 07:41:06;;;;;;;35.38;11.25;;;1.60;99.90;;;;;;5091505;28;20040;-90
2022/12/11 07:43:32;;;;;;;28.20;10.93;;;1.60;99.90;;;;;;5074379;28;20501;-90
2022/12/11 07:46:10;;;;;;;35.25;13.43;;;1.60;99.90;;;;;;5101076;28;20059;-89
2022/12/11 07:48:36;;;;;;;32.30;12.52;;;1.60;99.90;;;;;;5097353;28;20090;-89
2022/12/11 07:51:14;;;;;;;23.98;10.13;;;1.60;99.90;;;;;;5086574;28;20118;-89
2022/12/11 07:53:40;;;;;;;31.63;13.32;;;1.60;99.90;;;;;;5089368;28;20429;-89
2022/12/11 07:56:06;;;;;;;31.30;12.43;;;1.60;99.90;;;;;;5073336;28;20085;-88
2022/12/11 07:58:32;;;;;;;32.60;11.77;;;1.60;99.90;;;;;;5073508;28;20087;-90
2022/12/11 08:00:58;;;;;;;30.35;11.30;;;1.60;99.90;;;;;;5073750;28;20509;-90
2022/12/11 08:03:24;;;;;;;30.33;13.18;;;1.60;99.90;;;;;;5073457;28;20035;-90
2022/12/11 08:05:51;;;;;;;29.20;11.77;;;1.60;99.90;;;;;;5074008;28;20498;-90
2022/12/11 08:08:17;;;;;;;31.95;14.40;;;1.60;99.90;;;;;;5073941;28;20046;-89
2022/12/11 08:10:43;;;;;;;37.72;12.95;;;1.60;99.90;;;;;;5090992;28;20028;-89
2022/12/11 08:13:08;;;;;;;32.58;12.25;;;1.60;99.90;;;;;;5090831;28;20536;-89
2022/12/11 08:15:34;;;;;;;30.33;12.02;;;1.60;99.90;;;;;;5073417;28;20051;-89
2022/12/11 08:18:00;;;;;;;30.60;13.23;;;1.70;99.90;;;;;;5073877;28;20055;-90
2022/12/11 08:20:26;;;;;;;34.30;13.80;;;1.70;99.90;;;;;;5074125;28;20044;-90
2022/12/11 08:22:51;;;;;;;40.55;14.98;;;1.70;99.90;;;;;;5072889;28;20048;-88
2022/12/11 08:25:17;;;;;;;34.58;13.30;;;1.60;99.90;;;;;;5073736;28;20082;-89
2022/12/11 08:27:42;;;;;;;29.95;11.40;;;1.70;99.90;;;;;;5073770;28;20040;-88
2022/12/11 08:30:09;;;;;;;38.47;14.48;;;1.70;99.90;;;;;;5090438;28;20039;-88
2022/12/11 08:32:34;;;;;;;31.10;13.38;;;1.70;99.90;;;;;;5089480;28;20043;-90
2022/12/11 08:35:00;;;;;;;30.35;13.18;;;1.70;99.90;;;;;;5090114;28;20036;-90
2022/12/11 08:37:26;;;;;;;36.10;13.60;;;1.70;99.90;;;;;;5072940;28;20067;-90
2022/12/11 08:39:51;;;;;;;31.45;11.73;;;1.70;99.90;;;;;;5073119;28;20082;-89
2022/12/11 08:42:17;;;;;;;36.17;13.32;;;1.70;99.90;;;;;;5073330;28;20036;-89
2022/12/11 08:44:43;;;;;;;33.75;13.60;;;1.70;99.90;;;;;;5073617;28;20401;-89
2022/12/11 08:47:08;;;;;;;36.22;14.35;;;1.70;99.90;;;;;;5115137;27;20093;-88
2022/12/11 08:49:35;;;;;;;33.03;13.40;;;1.70;99.90;;;;;;5089686;28;20028;-89
2022/12/11 08:52:02;;;;;;;36.10;13.63;;;1.70;99.90;;;;;;5106882;28;20032;-89
2022/12/11 08:54:28;;;;;;;34.30;13.40;;;1.70;99.90;;;;;;5073349;28;20468;-89
2022/12/11 08:56:54;;;;;;;31.60;12.80;;;1.70;99.90;;;;;;5090489;28;20082;-88
2022/12/11 08:59:19;;;;;;;31.50;11.88;;;1.70;99.90;;;;;;5090945;28;20036;-89
2022/12/11 09:01:45;;;;;;;33.85;13.93;;;1.80;99.90;;;;;;5073583;28;20552;-89
2022/12/11 09:04:10;;;;;;;31.15;11.77;;;1.80;99.90;;;;;;5089850;28;20043;-88
2022/12/11 09:06:36;;;;;;;36.53;14.43;;;1.80;99.90;;;;;;5090848;28;20036;-88
2022/12/11 09:09:02;;;;;;;31.17;12.60;;;1.80;99.90;;;;;;5090071;28;20040;-89
2022/12/11 09:11:31;;;;;;;38.90;13.48;;;1.80;99.90;;;;;;5090324;28;20119;-89
2022/12/11 09:13:57;;;;;;;37.22;13.15;;;1.80;99.90;;;;;;5090288;28;20028;-88
2022/12/11 09:16:25;;;;;;;30.63;12.63;;;1.80;99.90;;;;;;5124006;27;20539;-89
2022/12/11 09:18:52;;;;;;;30.23;11.57;;;1.80;99.90;;;;;;5090183;28;20047;-89
2022/12/11 09:21:21;;;;;;;34.67;12.95;;;1.80;99.90;;;;;;5072757;28;20035;-88
2022/12/11 09:23:47;;;;;;;31.15;12.55;;;1.80;99.90;;;;;;5076114;28;20096;-89
2022/12/11 09:26:14;;;;;;;32.70;12.85;;;1.80;99.90;;;;;;5079764;28;20036;-89
2022/12/11 09:28:41;;;;;;;32.40;13.13;;;1.80;99.90;;;;;;5094524;28;20046;-89
2022/12/11 09:31:15;;;;;;;33.33;12.32;;;1.80;99.90;;;;;;5096929;28;20501;-89
2022/12/11 09:33:41;;;;;;;35.65;13.52;;;1.80;99.90;;;;;;5077520;28;20036;-89
2022/12/11 09:36:07;;;;;;;33.40;12.52;;;1.80;99.90;;;;;;5087433;28;20092;-89
2022/12/11 09:38:33;;;;;;;31.33;12.27;;;1.90;99.90;;;;;;5102880;28;20046;-89
2022/12/11 09:40:59;;;;;;;34.35;12.45;;;1.90;99.90;;;;;;5096807;28;20126;-89
2022/12/11 09:44:04;;;;;;;36.40;12.95;;;1.90;99.90;;;;;;5079101;28;20043;-89
2022/12/11 09:46:32;;;;;;;33.35;12.73;;;1.90;99.90;;;;;;5121774;27;20040;-89
2022/12/11 09:48:59;;;;;;;33.15;12.52;;;1.90;99.90;;;;;;5103489;27;20040;-89
2022/12/11 09:51:57;;;;;;;31.35;12.55;;;1.90;99.90;;;;;;5085504;28;20405;-89
2022/12/11 09:54:23;;;;;;;36.83;14.00;;;1.90;99.90;;;;;;5077345;28;20089;-89
2022/12/11 09:57:18;;;;;;;31.55;13.00;;;1.90;99.90;;;;;;5080166;28;20040;-89
2022/12/11 10:00:15;;;;;;;28.38;11.93;;;1.90;99.90;;;;;;5065875;28;20048;-89
2022/12/11 10:02:59;;;;;;;30.88;12.85;;;1.90;99.90;;;;;;5079808;28;20656;-89
2022/12/11 10:05:45;;;;;;;27.80;11.98;;;2.00;99.90;;;;;;5079940;28;20127;-89
2022/12/11 10:08:20;;;;;;;35.10;12.68;;;2.00;99.90;;;;;;5080038;28;20444;-88
2022/12/11 10:11:26;;;;;;;29.73;11.48;;;2.00;99.90;;;;;;5080182;28;20036;-89
2022/12/11 10:14:17;;;;;;;32.83;12.32;;;2.00;99.90;;;;;;5096483;28;20044;-89
2022/12/11 10:17:03;;;;;;;34.75;12.63;;;2.00;99.90;;;;;;5079938;28;20052;-90
2022/12/11 10:19:31;;;;;;;28.95;12.43;;;2.00;99.90;;;;;;5079790;28;20043;-89
2022/12/11 10:21:58;;;;;;;28.48;12.32;;;2.00;99.90;;;;;;5079684;28;20071;-89
2022/12/11 10:24:37;;;;;;;32.95;12.10;;;2.00;99.90;;;;;;5079692;28;20036;-90
2022/12/11 10:27:21;;;;;;;26.10;10.38;;;2.00;99.90;;;;;;5096409;28;20050;-89
2022/12/11 10:29:54;;;;;;;28.77;13.95;;;2.00;99.90;;;;;;5079209;28;20604;-89
2022/12/11 10:32:22;;;;;;;;;;;2.00;99.90;;;;;;5079810;28;20032;-90
2022/12/11 10:34:49;;;;;;;24.42;11.40;;;2.00;99.90;;;;;;5147330;27;19963;-90
2022/12/11 10:37:15;;;;;;;30.08;11.35;;;2.00;99.90;;;;;;5107338;28;20067;-90
2022/12/11 10:39:41;;;;;;;29.45;11.45;;;2.00;99.90;;;;;;5075363;28;20214;-90
2022/12/11 10:42:19;;;;;;;34.80;13.15;;;2.00;99.90;;;;;;5074872;28;20044;-90
2022/12/11 10:44:56;;;;;;;32.10;13.38;;;2.10;99.90;;;;;;5092187;28;20036;-90
2022/12/11 10:47:21;;;;;;;28.50;12.43;;;2.10;99.90;;;;;;5092246;28;20040;-90
2022/12/11 10:49:54;;;;;;;31.85;13.15;;;2.10;99.90;;;;;;5075275;28;20040;-90
2022/12/11 10:52:22;;;;;;;31.88;11.88;;;2.10;99.90;;;;;;5074728;28;20043;-90
2022/12/11 10:55:05;;;;;;;30.88;11.85;;;2.10;99.90;;;;;;5091773;28;20040;-90
2022/12/11 10:57:34;;;;;;;27.80;10.10;;;2.10;99.90;;;;;;5075551;28;20048;-90
2022/12/11 11:00:00;;;;;;;31.23;13.05;;;2.10;99.90;;;;;;5074191;28;20512;-90
2022/12/11 11:02:34;;;;;;;34.15;13.18;;;2.10;99.90;;;;;;5074817;28;20032;-90
2022/12/11 11:05:14;;;;;;;34.20;13.60;;;2.10;99.90;;;;;;5075436;28;20058;-90
2022/12/11 11:07:40;;;;;;;28.33;13.00;;;2.10;99.90;;;;;;5075328;28;20044;-90
2022/12/11 11:10:12;;;;;;;36.80;13.90;;;2.10;99.90;;;;;;5075715;28;20119;-90
2022/12/11 11:12:49;;;;;;;30.10;12.45;;;2.10;99.90;;;;;;5091139;28;20535;-90
2022/12/11 11:15:19;;;;;;;26.33;12.25;;;2.10;99.90;;;;;;5073593;28;20112;-90
2022/12/11 11:17:47;;;;;;;32.10;12.45;;;2.10;99.90;;;;;;5092290;28;20044;-90
2022/12/11 11:20:17;;;;;;;35.33;14.18;;;2.10;99.90;;;;;;5091370;28;20036;-91
2022/12/11 11:22:50;;;;;;;27.10;11.13;;;2.10;99.90;;;;;;5091164;28;20119;-90
2022/12/11 11:25:19;;;;;;;;;;;2.10;99.90;;;;;;5075745;28;20047;-90
2022/12/11 11:27:53;;;;;;;28.33;11.20;;;2.10;99.90;;;;;;5074051;28;19916;-90
2022/12/11 11:30:28;;;;;;;32.17;12.93;;;2.10;99.90;;;;;;5074994;28;20078;-90
2022/12/11 11:33:02;;;;;;;27.98;12.85;;;2.20;99.90;;;;;;5074482;28;20032;-90
2022/12/11 11:35:29;;;;;;;29.50;12.23;;;2.20;99.90;;;;;;5091631;28;20097;-90
2022/12/11 11:38:10;;;;;;;27.15;11.52;;;2.20;99.90;;;;;;5074585;28;20485;-90
2022/12/11 11:40:46;;;;;;;26.95;11.75;;;2.20;99.90;;;;;;5074299;28;20072;-90
2022/12/11 11:43:28;;;;;;;36.10;14.32;;;2.20;99.90;;;;;;5074321;28;20044;-90
2022/12/11 11:46:24;;;;;;;27.45;12.10;;;2.20;99.90;;;;;;5090958;28;20036;-90
2022/12/11 11:48:52;;;;;;;30.35;11.63;;;2.20;99.90;;;;;;5074544;28;20046;-89
2022/12/11 11:51:32;;;;;;;32.55;11.98;;;2.20;99.90;;;;;;5091451;28;20036;-90
2022/12/11 11:54:02;;;;;;;30.00;10.85;;;2.20;99.90;;;;;;5074628;28;20389;-89
2022/12/11 11:56:35;;;;;;;26.75;11.27;;;2.20;99.90;;;;;;5091005;28;20039;-90
2022/12/11 11:59:16;;;;;;;29.83;11.15;;;2.20;99.90;;;;;;5091532;28;20044;-89
2022/12/11 12:01:42;;;;;;;35.97;11.98;;;2.20;99.90;;;;;;5089942;28;20055;-90
2022/12/11 12:04:09;;;;;;;30.63;13.90;;;2.20;99.90;;;;;;5073888;28;20036;-89
2022/12/11 12:06:48;;;;;;;29.20;14.15;;;2.30;99.90;;;;;;5090578;28;20044;-90
2022/12/11 12:09:28;;;;;;;29.00;12.05;;;2.30;99.90;;;;;;5090395;28;20126;-90
2022/12/11 12:12:02;;;;;;;27.67;12.45;;;2.30;99.90;;;;;;5074353;28;20104;-90
2022/12/11 12:14:36;;;;;;;33.47;12.18;;;2.30;99.90;;;;;;5073383;28;20123;-90
2022/12/11 12:17:17;;;;;;;30.13;12.75;;;2.30;99.90;;;;;;5090929;28;20040;-90
2022/12/11 12:19:46;;;;;;;31.52;13.27;;;2.30;99.90;;;;;;5074207;28;20044;-90
2022/12/11 12:22:49;;;;;;;32.67;13.07;;;2.30;99.90;;;;;;5073492;28;20036;-90
2022/12/11 12:25:23;;;;;;;30.50;11.45;;;2.30;99.90;;;;;;5073790;28;20044;-90
2022/12/11 12:27:49;;;;;;;28.55;10.88;;;2.30;99.90;;;;;;5090492;28;20039;-90
2022/12/11 12:30:17;;;;;;;33.92;12.82;;;2.30;99.90;;;;;;5073524;28;20408;-90
2022/12/11 12:33:04;;;;;;;28.35;12.07;;;2.20;99.90;;;;;;5073263;28;20097;-89
2022/12/11 12:35:36;;;;;;;34.05;12.60;;;2.20;99.90;;;;;;5090556;28;20510;-90
2022/12/11 12:38:05;;;;;;;33.35;11.90;;;2.20;99.90;;;;;;5073489;28;20040;-90
2022/12/11 12:41:05;;;;;;;31.55;12.45;;;2.20;99.90;;;;;;5073230;28;20094;-89
2022/12/11 12:43:51;;;;;;;31.05;12.32;;;2.20;99.90;;;;;;5090172;28;20044;-90
2022/12/11 12:46:39;;;;;;;32.00;11.73;;;2.20;99.90;;;;;;5090467;28;20051;-90
2022/12/11 12:49:12;;;;;;;27.63;12.02;;;2.20;99.90;;;;;;5073577;28;20568;-89
2022/12/11 12:51:39;;;;;;;30.60;12.27;;;2.20;99.90;;;;;;5090478;28;20036;-90
2022/12/11 12:54:08;;;;;;;34.55;12.82;;;2.20;99.90;;;;;;5071694;28;20039;-89
2022/12/11 12:56:36;;;;;;;32.42;12.00;;;2.20;99.90;;;;;;5072779;28;20047;-90
2022/12/11 12:59:02;;;;;;;31.67;13.05;;;2.20;99.90;;;;;;5089211;28;20040;-90
2022/12/11 13:01:30;;;;;;;31.05;12.30;;;2.20;99.90;;;;;;5090741;28;20040;-90